Time;durP1;ratioP1;P1;durP2;ratioP2;P2;SDS_P1;SDS_P2;PMS_P1;PMS_P2;Temp;Humidity;BMP_temperature;BMP_pressure;BME280_temperature;BME280_humidity;BME280_pressure;Samples;Min_cycle;Max_cycle;Signal;HPM_P1;HPM_P2
2022/04/22 00:00:50;;;;;;;6.80;5.10;;;;;;;;;;6153713;28;20226;-70
2022/04/22 00:04:10;;;;;;;7.30;4.97;;;;;;;;;;6156470;28;20230;-70
2022/04/22 00:07:31;;;;;;;8.40;5.00;;;;;;;;;;6157097;28;20620;-70
2022/04/22 00:14:30;;;;;;;11.60;5.87;;;;;;;;;;6156217;28;20230;-69
2022/04/22 00:17:51;;;;;;;5.07;4.57;;;;;;;;;;6157278;28;20242;-69
2022/04/22 00:21:12;;;;;;;5.37;4.87;;;;;;;;;;6156670;28;20623;-69
2022/04/22 00:24:33;;;;;;;6.53;4.60;;;;;;;;;;6152381;28;20254;-70
2022/04/22 00:27:54;;;;;;;6.43;4.73;;;;;;;;;;6155722;28;20235;-70
2022/04/22 00:31:15;;;;;;;8.13;5.63;;;;;;;;;;6155504;28;20243;-69
2022/04/22 00:34:36;;;;;;;5.57;4.40;;;;;;;;;;6152139;28;20234;-69
2022/04/22 00:37:56;;;;;;;5.57;4.73;;;;;;;;;;6155641;28;20230;-69
2022/04/22 00:41:17;;;;;;;5.83;4.80;;;;;;;;;;6154074;28;20235;-69
2022/04/22 00:44:39;;;;;;;6.10;5.20;;;;;;;;;;6153597;28;20226;-70
2022/04/22 00:48:00;;;;;;;5.13;4.10;;;;;;;;;;6156937;28;20793;-70
2022/04/22 00:51:22;;;;;;;5.30;4.03;;;;;;;;;;6154252;28;20238;-69
2022/04/22 00:54:43;;;;;;;5.93;4.63;;;;;;;;;;6150308;28;20234;-69
2022/04/22 00:58:04;;;;;;;5.40;4.87;;;;;;;;;;6155102;28;20290;-70
2022/04/22 01:01:26;;;;;;;5.90;4.87;;;;;;;;;;6152507;28;20633;-69
2022/04/22 01:12:17;;;;;;;6.03;4.33;;;;;;;;;;6150745;28;20234;-70
2022/04/22 01:15:38;;;;;;;6.27;4.80;;;;;;;;;;6155218;28;20337;-70
2022/04/22 01:19:00;;;;;;;6.70;4.20;;;;;;;;;;6154611;28;20223;-70
2022/04/22 01:22:22;;;;;;;7.10;4.20;;;;;;;;;;6152359;28;20250;-69
2022/04/22 01:25:43;;;;;;;6.23;4.63;;;;;;;;;;6154670;28;20269;-70
2022/04/22 01:29:03;;;;;;;5.20;3.90;;;;;;;;;;6148168;28;20227;-70
2022/04/22 01:32:26;;;;;;;7.83;4.37;;;;;;;;;;6152174;28;20638;-71
2022/04/22 01:35:46;;;;;;;6.47;3.60;;;;;;;;;;6150384;28;20264;-70
2022/04/22 01:39:08;;;;;;;5.50;4.33;;;;;;;;;;6150598;28;20230;-70
2022/04/22 01:42:29;;;;;;;6.60;5.03;;;;;;;;;;6152846;28;20250;-70
2022/04/22 01:45:52;;;;;;;4.93;4.40;;;;;;;;;;6151171;28;21154;-69
2022/04/22 01:49:13;;;;;;;4.63;3.97;;;;;;;;;;6151734;28;20234;-69
2022/04/22 01:52:34;;;;;;;4.73;4.23;;;;;;;;;;6151711;28;20222;-69
2022/04/22 01:55:56;;;;;;;6.97;3.87;;;;;;;;;;6152078;28;20549;-70
2022/04/22 01:59:17;;;;;;;5.67;4.07;;;;;;;;;;6151235;28;20223;-69
2022/04/22 02:02:37;;;;;;;6.90;4.53;;;;;;;;;;6150938;28;20226;-70
2022/04/22 02:06:01;;;;;;;7.00;4.97;;;;;;;;;;6151665;28;20566;-70
2022/04/22 02:09:21;;;;;;;7.57;4.57;;;;;;;;;;6153204;28;20230;-70
2022/04/22 02:12:43;;;;;;;5.13;4.63;;;;;;;;;;6151250;28;20582;-70
2022/04/22 02:16:05;;;;;;;5.97;4.27;;;;;;;;;;6152753;28;20222;-70
2022/04/22 02:19:25;;;;;;;5.63;4.17;;;;;;;;;;6150807;28;20276;-70
2022/04/22 02:22:46;;;;;;;9.80;4.93;;;;;;;;;;6151570;28;20313;-70
2022/04/22 02:26:07;;;;;;;7.43;3.50;;;;;;;;;;6154477;28;20222;-70
2022/04/22 02:29:28;;;;;;;9.03;5.67;;;;;;;;;;6149889;28;20250;-70
2022/04/22 02:32:48;;;;;;;4.87;4.37;;;;;;;;;;6150045;28;20218;-70
2022/04/22 02:36:09;;;;;;;5.70;4.20;;;;;;;;;;6152229;28;20813;-71
2022/04/22 02:39:29;;;;;;;5.60;4.50;;;;;;;;;;6154136;28;20321;-70
2022/04/22 02:46:30;;;;;;;5.30;3.83;;;;;;;;;;6159344;28;20219;-70
2022/04/22 02:49:50;;;;;;;5.90;4.60;;;;;;;;;;6146625;28;20326;-70
2022/04/22 02:53:10;;;;;;;5.33;4.50;;;;;;;;;;6142610;28;20230;-70
2022/04/22 02:56:31;;;;;;;6.63;4.50;;;;;;;;;;6153754;28;20657;-70
2022/04/22 02:59:52;;;;;;;7.50;4.43;;;;;;;;;;6155214;28;20615;-69
2022/04/22 03:03:14;;;;;;;6.70;3.80;;;;;;;;;;6154843;28;20322;-69
2022/04/22 03:06:34;;;;;;;5.00;3.63;;;;;;;;;;6155192;28;20238;-69
2022/04/22 03:09:55;;;;;;;4.47;3.13;;;;;;;;;;6157168;28;20230;-70
2022/04/22 03:13:16;;;;;;;6.57;3.83;;;;;;;;;;6158719;28;20238;-69
2022/04/22 03:16:36;;;;;;;7.60;4.97;;;;;;;;;;6159262;28;20234;-69
2022/04/22 03:19:58;;;;;;;6.13;3.50;;;;;;;;;;6156193;28;21857;-71
2022/04/22 03:23:19;;;;;;;6.57;4.17;;;;;;;;;;6154775;28;20218;-70
2022/04/22 03:26:39;;;;;;;7.87;3.93;;;;;;;;;;6154446;28;22019;-70
2022/04/22 03:30:02;;;;;;;5.80;4.17;;;;;;;;;;6152498;28;20242;-70
2022/04/22 03:33:22;;;;;;;5.47;3.73;;;;;;;;;;6150571;28;20562;-70
2022/04/22 03:36:44;;;;;;;6.17;3.73;;;;;;;;;;6149534;28;20231;-69
2022/04/22 03:40:05;;;;;;;7.10;3.87;;;;;;;;;;6151351;28;20258;-70
2022/04/22 03:43:26;;;;;;;6.33;3.80;;;;;;;;;;6150378;28;20262;-70
2022/04/22 03:46:46;;;;;;;4.00;3.60;;;;;;;;;;6150679;28;20262;-70
2022/04/22 03:50:07;;;;;;;7.37;3.80;;;;;;;;;;6149049;28;20226;-70
2022/04/22 03:53:29;;;;;;;4.03;3.60;;;;;;;;;;6152956;28;20987;-69
2022/04/22 04:00:28;;;;;;;14.97;12.47;;;;;;;;;;6149393;28;20227;-69
2022/04/22 04:03:48;;;;;;;7.37;4.60;;;;;;;;;;6152676;28;20230;-70
2022/04/22 04:07:08;;;;;;;6.90;4.90;;;;;;;;;;6154735;28;20239;-69
2022/04/22 04:17:46;;;;;;;8.17;4.37;;;;;;;;;;6153393;28;20257;-70
2022/04/22 04:24:45;;;;;;;8.37;5.17;;;;;;;;;;6149399;28;20325;-70
2022/04/22 04:28:09;;;;;;;5.83;3.83;;;;;;;;;;6152710;28;20234;-70
2022/04/22 04:31:31;;;;;;;5.37;4.40;;;;;;;;;;6155307;28;20231;-69
2022/04/22 04:34:51;;;;;;;7.93;6.10;;;;;;;;;;6147693;28;20230;-70
2022/04/22 04:38:11;;;;;;;8.13;5.20;;;;;;;;;;6154181;28;20230;-70
2022/04/22 04:41:32;;;;;;;7.77;5.57;;;;;;;;;;6151366;28;20231;-70
2022/04/22 04:44:54;;;;;;;11.57;10.00;;;;;;;;;;6147698;28;20234;-70
2022/04/22 04:48:14;;;;;;;7.57;6.87;;;;;;;;;;6153934;28;20230;-69
2022/04/22 04:51:35;;;;;;;8.10;5.07;;;;;;;;;;6150620;28;20620;-70
2022/04/22 04:54:55;;;;;;;6.00;4.93;;;;;;;;;;6148054;28;20230;-70
2022/04/22 04:58:16;;;;;;;5.77;5.23;;;;;;;;;;6154407;28;20235;-69
2022/04/22 05:01:38;;;;;;;7.53;6.50;;;;;;;;;;6149704;28;20231;-70
2022/04/22 05:04:59;;;;;;;13.10;6.63;;;;;;;;;;6151175;28;20235;-70
2022/04/22 05:08:19;;;;;;;6.90;5.27;;;;;;;;;;6151377;28;20235;-70
2022/04/22 05:11:40;;;;;;;8.83;5.30;;;;;;;;;;6141377;28;20575;-70
2022/04/22 05:15:00;;;;;;;6.10;5.23;;;;;;;;;;6151281;28;20301;-70
2022/04/22 05:18:22;;;;;;;9.80;6.07;;;;;;;;;;6151095;28;20231;-70
2022/04/22 05:21:43;;;;;;;7.07;5.47;;;;;;;;;;6155736;28;20242;-69
2022/04/22 05:25:04;;;;;;;7.10;5.30;;;;;;;;;;6156244;28;20514;-70
2022/04/22 05:28:24;;;;;;;7.23;5.40;;;;;;;;;;6150498;28;20234;-71
2022/04/22 05:35:26;;;;;;;12.30;5.73;;;;;;;;;;6152326;28;20218;-70
2022/04/22 05:38:46;;;;;;;6.27;4.80;;;;;;;;;;6148689;28;20234;-70
2022/04/22 05:42:07;;;;;;;13.70;5.93;;;;;;;;;;6151782;28;20235;-70
2022/04/22 05:45:28;;;;;;;8.23;5.77;;;;;;;;;;6152946;28;20234;-70
2022/04/22 05:48:49;;;;;;;6.10;5.50;;;;;;;;;;6149171;28;20249;-70
2022/04/22 05:52:11;;;;;;;7.33;6.20;;;;;;;;;;6149036;28;20234;-69
2022/04/22 05:55:31;;;;;;;8.47;6.90;;;;;;;;;;6145705;28;20235;-71
2022/04/22 05:58:52;;;;;;;9.27;7.03;;;;;;;;;;6147162;28;20234;-71
2022/04/22 06:02:12;;;;;;;8.93;4.90;;;;;;;;;;6145470;28;20230;-68
2022/04/22 06:05:33;;;;;;;6.60;4.67;;;;;;;;;;6151220;28;20329;-68
2022/04/22 06:12:32;;;;;;;7.03;6.43;;;;;;;;;;6145999;28;20234;-69
2022/04/22 06:15:53;;;;;;;9.43;5.07;;;;;;;;;;6144650;28;20322;-69
2022/04/22 06:19:13;;;;;;;6.60;5.10;;;;;;;;;;6145252;28;20242;-70
2022/04/22 06:22:34;;;;;;;4.40;3.83;;;;;;;;;;6142800;28;20226;-70
2022/04/22 06:25:56;;;;;;;6.73;4.53;;;;;;;;;;6148481;28;20222;-68
2022/04/22 06:29:17;;;;;;;6.00;3.73;;;;;;;;;;6150374;28;20844;-69
2022/04/22 06:32:38;;;;;;;4.27;3.87;;;;;;;;;;6150667;28;20780;-68
2022/04/22 06:36:01;;;;;;;7.93;5.37;;;;;;;;;;6146406;28;20266;-68
2022/04/22 06:39:21;;;;;;;7.83;4.97;;;;;;;;;;6148950;28;20238;-68
2022/04/22 06:46:20;;;;;;;8.10;4.60;;;;;;;;;;6148791;28;20242;-68
2022/04/22 06:49:41;;;;;;;11.43;4.60;;;;;;;;;;6150381;28;20234;-68
2022/04/22 06:53:02;;;;;;;5.60;3.30;;;;;;;;;;6147114;28;20651;-69
2022/04/22 06:56:24;;;;;;;6.10;3.63;;;;;;;;;;6142859;28;20242;-68
2022/04/22 06:59:46;;;;;;;4.83;3.53;;;;;;;;;;6149991;28;20261;-73
2022/04/22 07:03:07;;;;;;;5.27;3.40;;;;;;;;;;6144297;28;20798;-75
2022/04/22 07:06:29;;;;;;;10.00;3.60;;;;;;;;;;6134428;28;20671;-76
2022/04/22 07:09:50;;;;;;;6.10;4.00;;;;;;;;;;6146057;28;20223;-74
2022/04/22 07:13:11;;;;;;;6.33;3.23;;;;;;;;;;6151095;28;20230;-74
2022/04/22 07:16:33;;;;;;;7.03;3.80;;;;;;;;;;6141828;28;20239;-73
2022/04/22 07:19:53;;;;;;;7.70;3.37;;;;;;;;;;6142586;28;20234;-73
2022/04/22 07:23:14;;;;;;;3.70;3.17;;;;;;;;;;6121412;28;20238;-72
2022/04/22 07:26:35;;;;;;;6.70;4.33;;;;;;;;;;6153589;28;20239;-73
2022/04/22 07:29:57;;;;;;;5.57;3.57;;;;;;;;;;6149013;28;20234;-73
2022/04/22 07:33:19;;;;;;;5.77;3.83;;;;;;;;;;6148939;28;20238;-76
2022/04/22 07:36:40;;;;;;;5.50;3.17;;;;;;;;;;6145689;28;20250;-76
2022/04/22 07:40:00;;;;;;;5.57;3.10;;;;;;;;;;6152940;28;20241;-74
2022/04/22 07:47:08;;;;;;;7.10;3.43;;;;;;;;;;6118775;28;20222;-74
2022/04/22 07:50:31;;;;;;;5.40;4.30;;;;;;;;;;6145702;28;20227;-75
2022/04/22 07:53:55;;;;;;;4.03;2.90;;;;;;;;;;6158332;28;20218;-74
2022/04/22 07:57:15;;;;;;;4.67;3.10;;;;;;;;;;6143829;28;20227;-73
2022/04/22 08:00:36;;;;;;;3.47;2.83;;;;;;;;;;6143117;28;21526;-73
2022/04/22 08:03:58;;;;;;;5.63;3.50;;;;;;;;;;6145856;28;20821;-74
2022/04/22 08:07:19;;;;;;;4.73;3.03;;;;;;;;;;6145030;28;20253;-72
2022/04/22 08:10:40;;;;;;;7.33;4.03;;;;;;;;;;6146824;28;20239;-72
2022/04/22 08:14:00;;;;;;;5.47;3.47;;;;;;;;;;6141986;28;20250;-72
2022/04/22 08:17:21;;;;;;;7.77;3.70;;;;;;;;;;6148030;28;20325;-71
2022/04/22 08:20:42;;;;;;;6.97;3.53;;;;;;;;;;6144118;28;20243;-72
2022/04/22 08:24:05;;;;;;;5.50;3.40;;;;;;;;;;6144598;28;20235;-71
2022/04/22 08:27:28;;;;;;;7.77;3.50;;;;;;;;;;6153719;28;20234;-72
2022/04/22 08:30:49;;;;;;;5.10;3.73;;;;;;;;;;6153230;28;20600;-72
2022/04/22 08:34:09;;;;;;;10.27;4.10;;;;;;;;;;6156937;28;20238;-71
2022/04/22 08:37:30;;;;;;;8.60;4.60;;;;;;;;;;6156409;28;20278;-72
2022/04/22 08:40:52;;;;;;;9.53;4.57;;;;;;;;;;6154754;28;20230;-72
2022/04/22 08:44:13;;;;;;;4.10;3.43;;;;;;;;;;6155616;28;20541;-71
2022/04/22 08:51:14;;;;;;;5.63;4.30;;;;;;;;;;6160115;28;20313;-70
2022/04/22 08:54:36;;;;;;;7.87;3.90;;;;;;;;;;6162501;28;20515;-72
2022/04/22 08:57:58;;;;;;;6.47;3.60;;;;;;;;;;6149707;28;20218;-69
2022/04/22 09:01:19;;;;;;;7.10;4.93;;;;;;;;;;6157620;28;20234;-71
2022/04/22 09:04:39;;;;;;;6.87;4.53;;;;;;;;;;6158493;28;20239;-71
2022/04/22 09:08:00;;;;;;;9.87;3.83;;;;;;;;;;6141428;28;20238;-71
2022/04/22 09:11:21;;;;;;;4.40;3.43;;;;;;;;;;6144709;28;20261;-70
2022/04/22 09:14:46;;;;;;;5.23;3.20;;;;;;;;;;6137333;28;20227;-71
2022/04/22 09:18:10;;;;;;;9.43;3.20;;;;;;;;;;6146055;28;20242;-71
2022/04/22 09:21:30;;;;;;;8.43;4.10;;;;;;;;;;6147963;28;20313;-72
2022/04/22 09:24:52;;;;;;;5.83;3.30;;;;;;;;;;6149723;28;21884;-71
2022/04/22 09:28:13;;;;;;;6.03;4.23;;;;;;;;;;6156952;28;20327;-70
2022/04/22 09:31:46;;;;;;;6.17;3.97;;;;;;;;;;6151220;28;20235;-72
2022/04/22 09:35:07;;;;;;;7.97;4.43;;;;;;;;;;6150767;28;20238;-71
2022/04/22 09:45:47;;;;;;;7.13;4.33;;;;;;;;;;6153420;28;20832;-71
2022/04/22 09:49:11;;;;;;;6.97;5.23;;;;;;;;;;6153828;28;20238;-70
2022/04/22 09:52:34;;;;;;;5.90;4.47;;;;;;;;;;6156757;28;20611;-71
2022/04/22 09:55:57;;;;;;;8.40;5.33;;;;;;;;;;6160686;28;20238;-71
2022/04/22 09:59:22;;;;;;;8.60;4.17;;;;;;;;;;6157367;28;20233;-72
2022/04/22 10:02:43;;;;;;;8.00;4.83;;;;;;;;;;6158099;28;20226;-72
2022/04/22 10:06:06;;;;;;;4.77;3.50;;;;;;;;;;6162186;28;21010;-72
2022/04/22 10:09:27;;;;;;;11.23;5.10;;;;;;;;;;6149618;28;20222;-72
2022/04/22 10:12:49;;;;;;;5.63;4.50;;;;;;;;;;6152651;28;20230;-71
2022/04/22 10:16:10;;;;;;;4.20;3.80;;;;;;;;;;6153911;28;20391;-71
2022/04/22 10:19:32;;;;;;;6.47;3.40;;;;;;;;;;6152418;28;20230;-72
2022/04/22 10:22:54;;;;;;;4.00;3.50;;;;;;;;;;6148773;28;20245;-72
2022/04/22 10:26:14;;;;;;;8.37;4.67;;;;;;;;;;6152403;28;20227;-72
2022/04/22 10:29:36;;;;;;;4.97;4.40;;;;;;;;;;6149627;28;20222;-70
2022/04/22 10:32:57;;;;;;;5.77;4.20;;;;;;;;;;6148960;28;20254;-70
2022/04/22 10:36:18;;;;;;;6.03;5.07;;;;;;;;;;6151172;28;20227;-70
2022/04/22 10:39:40;;;;;;;6.43;5.13;;;;;;;;;;6153035;28;21304;-71
2022/04/22 10:43:02;;;;;;;6.73;3.93;;;;;;;;;;6148022;28;20242;-72
2022/04/22 10:50:20;;;;;;;5.50;5.00;;;;;;;;;;6151730;28;20494;-72
2022/04/22 10:53:45;;;;;;;6.67;4.20;;;;;;;;;;6152118;28;20238;-71
2022/04/22 10:57:15;;;;;;;5.20;3.93;;;;;;;;;;6153526;28;20242;-73
2022/04/22 11:00:36;;;;;;;4.37;3.83;;;;;;;;;;6153899;28;20242;-72
2022/04/22 11:03:57;;;;;;;6.30;4.70;;;;;;;;;;6152762;28;20230;-71
2022/04/22 11:07:32;;;;;;;7.50;4.63;;;;;;;;;;6155992;28;20230;-71
2022/04/22 11:10:58;;;;;;;6.83;4.90;;;;;;;;;;6154800;28;20230;-71
2022/04/22 11:14:20;;;;;;;5.80;4.40;;;;;;;;;;6154150;28;20234;-71
2022/04/22 11:17:44;;;;;;;7.30;4.10;;;;;;;;;;6153206;28;20246;-71
2022/04/22 11:21:05;;;;;;;17.13;6.17;;;;;;;;;;6155869;28;20226;-71
2022/04/22 11:24:27;;;;;;;6.97;5.40;;;;;;;;;;6156199;28;20243;-71
2022/04/22 11:27:49;;;;;;;7.13;5.47;;;;;;;;;;6158887;28;20249;-71
2022/04/22 11:31:12;;;;;;;7.30;5.90;;;;;;;;;;6156584;28;20317;-71
2022/04/22 11:34:47;;;;;;;6.97;5.87;;;;;;;;;;6154217;28;20235;-71
2022/04/22 11:38:08;;;;;;;9.00;5.15;;;;;;;;;;6154074;28;20619;-72
2022/04/22 11:41:29;;;;;;;8.17;6.87;;;;;;;;;;6149072;28;20238;-72
2022/04/22 11:45:01;;;;;;;4.17;3.77;;;;;;;;;;6143018;28;20321;-71
2022/04/22 11:48:24;;;;;;;9.40;6.23;;;;;;;;;;6152052;28;20247;-71
2022/04/22 11:51:45;;;;;;;6.90;5.43;;;;;;;;;;6151016;28;20511;-71
2022/04/22 11:55:07;;;;;;;5.45;4.50;;;;;;;;;;6154121;28;20700;-71
2022/04/22 11:58:29;;;;;;;9.60;6.30;;;;;;;;;;6153113;28;20238;-72
2022/04/22 12:05:36;;;;;;;7.47;5.35;;;;;;;;;;6150762;28;20520;-71
2022/04/22 12:08:57;;;;;;;7.32;5.25;;;;;;;;;;6154072;28;20230;-70
2022/04/22 12:12:17;;;;;;;11.20;4.30;;;;;;;;;;6153454;28;20608;-70
2022/04/22 12:15:46;;;;;;;7.57;5.85;;;;;;;;;;6155156;28;21760;-71
2022/04/22 12:19:09;;;;;;;8.68;7.07;;;;;;;;;;6152937;28;20238;-70
2022/04/22 12:22:32;;;;;;;7.20;5.78;;;;;;;;;;6154110;28;20231;-71
2022/04/22 12:25:55;;;;;;;4.60;3.50;;;;;;;;;;6150533;28;20238;-72
2022/04/22 12:29:17;;;;;;;5.68;3.70;;;;;;;;;;6150324;28;20334;-72
2022/04/22 12:32:38;;;;;;;4.63;3.38;;;;;;;;;;6145732;28;21261;-71
2022/04/22 12:36:04;;;;;;;7.00;4.32;;;;;;;;;;6146545;28;20325;-70
2022/04/22 12:39:36;;;;;;;6.03;4.07;;;;;;;;;;6144274;28;20664;-72
2022/04/22 12:43:17;;;;;;;7.97;4.88;;;;;;;;;;6154473;28;20230;-71
2022/04/22 12:54:03;;;;;;;6.53;4.60;;;;;;;;;;6125846;28;20222;-72
2022/04/22 12:57:25;;;;;;;8.77;4.80;;;;;;;;;;6159919;28;20759;-71
2022/04/22 13:00:45;;;;;;;7.38;4.10;;;;;;;;;;6156284;28;20543;-71
2022/04/22 13:04:07;;;;;;;9.60;4.43;;;;;;;;;;6159367;28;20652;-71
2022/04/22 13:07:40;;;;;;;4.75;4.35;;;;;;;;;;6157476;28;20234;-72
2022/04/22 13:11:02;;;;;;;5.05;3.92;;;;;;;;;;6159200;28;20620;-71
2022/04/22 13:14:22;;;;;;;5.35;4.07;;;;;;;;;;6159443;28;20222;-71
2022/04/22 13:17:44;;;;;;;7.70;4.28;;;;;;;;;;6163009;28;20246;-72
2022/04/22 13:21:05;;;;;;;8.73;4.85;;;;;;;;;;6159227;28;20235;-72
2022/04/22 13:24:26;;;;;;;7.80;4.22;;;;;;;;;;6159499;28;20770;-70
2022/04/22 13:27:47;;;;;;;5.30;4.10;;;;;;;;;;6163680;28;20234;-72
2022/04/22 13:31:08;;;;;;;12.07;7.68;;;;;;;;;;6147123;28;20238;-73
2022/04/22 13:34:28;;;;;;;9.45;7.25;;;;;;;;;;6149927;28;20333;-71
2022/04/22 13:37:51;;;;;;;9.48;5.57;;;;;;;;;;6141953;28;20518;-72
2022/04/22 13:41:12;;;;;;;7.80;6.38;;;;;;;;;;6146798;28;20937;-71
2022/04/22 13:55:28;;;;;;;5.90;3.65;;;;;;;;;;6157890;28;20378;-71
2022/04/22 13:58:49;;;;;;;6.60;4.22;;;;;;;;;;6160830;28;20554;-73
2022/04/22 14:02:10;;;;;;;5.93;3.72;;;;;;;;;;6148891;28;20242;-71
2022/04/22 14:05:30;;;;;;;4.30;3.40;;;;;;;;;;6156637;28;20226;-70
2022/04/22 14:08:51;;;;;;;6.18;3.60;;;;;;;;;;6152687;28;20241;-72
2022/04/22 14:12:13;;;;;;;6.28;3.72;;;;;;;;;;6139945;28;20234;-73
2022/04/22 14:15:33;;;;;;;7.40;5.28;;;;;;;;;;6148637;28;20705;-71
2022/04/22 14:18:54;;;;;;;8.10;6.22;;;;;;;;;;6155257;28;20239;-72
2022/04/22 14:22:15;;;;;;;11.70;5.97;;;;;;;;;;6152052;28;22233;-72
2022/04/22 14:25:36;;;;;;;5.38;4.38;;;;;;;;;;6149977;28;20235;-73
2022/04/22 14:28:59;;;;;;;13.00;9.95;;;;;;;;;;6152000;28;20235;-72
2022/04/22 14:32:20;;;;;;;8.88;5.80;;;;;;;;;;6147845;28;20239;-72
2022/04/22 14:35:41;;;;;;;11.98;9.43;;;;;;;;;;6145549;28;20229;-72
2022/04/22 14:39:01;;;;;;;15.05;11.88;;;;;;;;;;6150831;28;20964;-69
2022/04/22 14:42:22;;;;;;;9.25;7.43;;;;;;;;;;6144666;28;20226;-77
2022/04/22 14:45:44;;;;;;;7.18;5.65;;;;;;;;;;6155226;28;20246;-79
2022/04/22 14:49:05;;;;;;;6.82;4.95;;;;;;;;;;6157012;28;20231;-77
2022/04/22 14:52:26;;;;;;;7.15;5.45;;;;;;;;;;6155267;28;20231;-76
2022/04/22 14:55:47;;;;;;;11.73;6.80;;;;;;;;;;6152790;28;20250;-80
2022/04/22 14:59:08;;;;;;;10.40;6.32;;;;;;;;;;6151469;28;20253;-72
2022/04/22 15:02:35;;;;;;;8.10;5.47;;;;;;;;;;6154681;28;20226;-75
2022/04/22 15:05:56;;;;;;;9.30;5.50;;;;;;;;;;6158429;28;20234;-72
2022/04/22 15:09:17;;;;;;;7.20;5.05;;;;;;;;;;6157549;28;20242;-81
2022/04/22 15:12:38;;;;;;;7.70;6.38;;;;;;;;;;6139246;28;20258;-71
2022/04/22 15:15:59;;;;;;;14.00;6.18;;;;;;;;;;6147723;28;20238;-78
2022/04/22 15:26:50;;;;;;;8.48;5.90;;;;;;;;;;6152445;28;20238;-67
2022/04/22 15:30:11;;;;;;;9.30;6.65;;;;;;;;;;6151133;28;20262;-72
2022/04/22 15:33:31;;;;;;;12.13;8.27;;;;;;;;;;6156535;28;20238;-81
2022/04/22 15:36:53;;;;;;;26.42;6.90;;;;;;;;;;6162183;28;20235;-78
2022/04/22 15:40:14;;;;;;;37.97;8.20;;;;;;;;;;6139721;28;20234;-74
2022/04/22 15:43:36;;;;;;;26.88;7.85;;;;;;;;;;6150800;28;20239;-77
2022/04/22 15:46:56;;;;;;;6.75;4.63;;;;;;;;;;6148829;28;20261;-70
2022/04/22 15:50:17;;;;;;;7.68;4.35;;;;;;;;;;6152291;28;20607;-77
2022/04/22 15:53:40;;;;;;;6.13;4.55;;;;;;;;;;6129996;28;20236;-70
2022/04/22 15:57:01;;;;;;;19.53;5.13;;;;;;;;;;6143316;28;20227;-73
2022/04/22 16:00:21;;;;;;;6.10;5.40;;;;;;;;;;6141596;28;20254;-74
2022/04/22 16:03:47;;;;;;;5.87;4.83;;;;;;;;;;6156657;28;20344;-72
2022/04/22 16:07:07;;;;;;;6.60;5.22;;;;;;;;;;6154167;28;20227;-77
2022/04/22 16:10:29;;;;;;;9.02;5.00;;;;;;;;;;6148288;28;20445;-69
2022/04/22 16:17:29;;;;;;;61.15;55.60;;;;;;;;;;6151874;28;20234;-69
2022/04/22 16:20:49;;;;;;;671.50;606.03;;;;;;;;;;6155299;28;20242;-68
2022/04/22 16:24:10;;;;;;;532.42;479.73;;;;;;;;;;6153207;28;20374;-74
2022/04/22 16:27:32;;;;;;;533.22;484.00;;;;;;;;;;6156624;28;20230;-65
2022/04/22 16:30:52;;;;;;;783.03;702.70;;;;;;;;;;6126531;28;20243;-69
2022/04/22 16:34:13;;;;;;;55.30;49.55;;;;;;;;;;6132494;28;20247;-69
2022/04/22 16:37:34;;;;;;;9.90;6.53;;;;;;;;;;6127011;28;20647;-70
2022/04/22 16:40:54;;;;;;;7.40;6.55;;;;;;;;;;6126981;28;20227;-70
2022/04/22 16:44:16;;;;;;;6.25;4.28;;;;;;;;;;6133068;28;20235;-68
2022/04/22 16:47:37;;;;;;;8.53;4.97;;;;;;;;;;6131957;28;20620;-70
2022/04/22 16:50:57;;;;;;;12.23;8.93;;;;;;;;;;6131012;28;20651;-70
2022/04/22 16:54:18;;;;;;;10.17;6.53;;;;;;;;;;6133423;28;20227;-70
2022/04/22 16:57:39;;;;;;;8.30;6.27;;;;;;;;;;6155925;28;20279;-69
2022/04/22 17:01:02;;;;;;;9.10;5.60;;;;;;;;;;6151116;28;20262;-70
2022/04/22 17:04:23;;;;;;;13.00;11.53;;;;;;;;;;6155018;28;20219;-68
2022/04/22 17:07:43;;;;;;;7.00;6.30;;;;;;;;;;6154143;28;20258;-69
2022/04/22 17:11:04;;;;;;;8.47;6.73;;;;;;;;;;6141161;28;20271;-70
2022/04/22 17:25:21;;;;;;;8.73;4.93;;;;;;;;;;6151598;28;20230;-69
2022/04/22 17:28:42;;;;;;;10.27;5.27;;;;;;;;;;6155209;28;20227;-68
2022/04/22 17:32:02;;;;;;;7.57;4.93;;;;;;;;;;6154338;28;20535;-70
2022/04/22 17:35:24;;;;;;;9.53;5.73;;;;;;;;;;6148050;28;20710;-69
2022/04/22 17:38:46;;;;;;;12.37;7.60;;;;;;;;;;6148333;28;21016;-69
2022/04/22 17:42:09;;;;;;;8.97;6.97;;;;;;;;;;6147405;28;20238;-69
2022/04/22 17:45:29;;;;;;;12.73;9.73;;;;;;;;;;6148794;28;20246;-70
2022/04/22 17:48:50;;;;;;;9.67;7.33;;;;;;;;;;6150051;28;20765;-70
2022/04/22 17:52:12;;;;;;;9.37;6.77;;;;;;;;;;6149159;28;20262;-69
2022/04/22 17:55:32;;;;;;;11.17;8.93;;;;;;;;;;6143606;28;20234;-71
2022/04/22 17:58:53;;;;;;;11.53;8.13;;;;;;;;;;6151459;28;20242;-71
2022/04/22 18:02:15;;;;;;;7.00;5.33;;;;;;;;;;6150142;28;20275;-77
2022/04/22 18:05:36;;;;;;;8.93;6.57;;;;;;;;;;6151299;28;20234;-68
2022/04/22 18:08:58;;;;;;;9.87;6.33;;;;;;;;;;6152989;28;20834;-70
2022/04/22 18:12:18;;;;;;;8.53;5.00;;;;;;;;;;6151122;28;20230;-71
2022/04/22 18:19:17;;;;;;;8.47;5.70;;;;;;;;;;6162570;28;20223;-69
2022/04/22 18:22:37;;;;;;;9.03;5.60;;;;;;;;;;6125002;28;20243;-69
2022/04/22 18:26:00;;;;;;;10.40;5.53;;;;;;;;;;6139379;28;20325;-69
2022/04/22 18:29:21;;;;;;;9.77;5.50;;;;;;;;;;6129435;28;20309;-69
2022/04/22 18:32:42;;;;;;;11.73;6.33;;;;;;;;;;6138508;28;20241;-71
2022/04/22 18:36:02;;;;;;;18.73;11.87;;;;;;;;;;6118537;28;20251;-69
2022/04/22 18:39:23;;;;;;;13.07;9.20;;;;;;;;;;6142485;28;20242;-72
2022/04/22 18:42:45;;;;;;;15.57;8.47;;;;;;;;;;6150409;28;20258;-71
2022/04/22 18:46:06;;;;;;;10.67;8.47;;;;;;;;;;6147431;28;20234;-70
2022/04/22 18:49:29;;;;;;;13.53;10.50;;;;;;;;;;6148568;28;20235;-72
2022/04/22 18:52:50;;;;;;;15.70;10.90;;;;;;;;;;6147885;28;20227;-69
2022/04/22 18:56:10;;;;;;;11.83;9.90;;;;;;;;;;6151723;28;20510;-69
2022/04/22 18:59:34;;;;;;;10.97;6.97;;;;;;;;;;6148293;28;20238;-69
2022/04/22 19:03:10;;;;;;;17.17;8.23;;;;;;;;;;6146776;28;20611;-68
2022/04/22 19:06:30;;;;;;;11.43;8.03;;;;;;;;;;6151216;28;20659;-69
2022/04/22 19:09:51;;;;;;;7.77;6.13;;;;;;;;;;6150004;28;20549;-69
2022/04/22 19:13:13;;;;;;;11.63;8.20;;;;;;;;;;6132526;28;20253;-69
2022/04/22 19:16:35;;;;;;;10.97;6.87;;;;;;;;;;6141964;28;20231;-68
2022/04/22 19:19:55;;;;;;;11.10;7.63;;;;;;;;;;6153141;28;20239;-68
2022/04/22 19:23:16;;;;;;;14.33;8.37;;;;;;;;;;6152067;28;20616;-70
2022/04/22 19:26:37;;;;;;;9.43;7.83;;;;;;;;;;6156784;28;20238;-69
2022/04/22 19:29:58;;;;;;;10.63;8.43;;;;;;;;;;6156101;28;20229;-69
2022/04/22 19:33:20;;;;;;;8.30;7.43;;;;;;;;;;6158413;28;20245;-70
2022/04/22 19:44:08;;;;;;;9.77;8.00;;;;;;;;;;6075287;28;20240;-72
2022/04/22 19:47:30;;;;;;;13.33;10.73;;;;;;;;;;6165514;28;20238;-72
2022/04/22 19:50:53;;;;;;;14.30;8.00;;;;;;;;;;6160816;28;20858;-71
2022/04/22 19:54:13;;;;;;;11.20;8.50;;;;;;;;;;6166112;28;20241;-72
2022/04/22 19:57:34;;;;;;;12.07;7.97;;;;;;;;;;6168837;28;20592;-71
2022/04/22 20:00:56;;;;;;;8.47;7.57;;;;;;;;;;6142760;28;20484;-70
2022/04/22 20:04:16;;;;;;;10.27;6.53;;;;;;;;;;6157201;28;20238;-72
2022/04/22 20:07:38;;;;;;;10.00;6.77;;;;;;;;;;6153033;28;20233;-71
2022/04/22 20:10:59;;;;;;;9.50;7.00;;;;;;;;;;6159787;28;20261;-71
2022/04/22 20:14:22;;;;;;;11.40;6.03;;;;;;;;;;6161535;28;20235;-73
2022/04/22 20:17:43;;;;;;;11.10;7.37;;;;;;;;;;6162079;28;20242;-71
2022/04/22 20:21:04;;;;;;;8.53;6.83;;;;;;;;;;6160809;28;20231;-70
2022/04/22 20:24:27;;;;;;;10.07;6.40;;;;;;;;;;6157793;28;20226;-71
2022/04/22 20:27:47;;;;;;;10.83;6.70;;;;;;;;;;6157352;28;20235;-69
2022/04/22 20:31:10;;;;;;;7.77;5.90;;;;;;;;;;6157558;28;20235;-70
2022/04/22 20:41:45;;;;;;;6.60;5.87;;;;;;;;;;6155049;28;20238;-70
2022/04/22 20:45:06;;;;;;;8.60;6.57;;;;;;;;;;6155325;28;20287;-70
2022/04/22 20:48:27;;;;;;;9.80;7.20;;;;;;;;;;6160244;28;20238;-72
2022/04/22 20:51:48;;;;;;;7.47;6.10;;;;;;;;;;6161569;28;20239;-71
2022/04/22 20:55:08;;;;;;;8.17;6.00;;;;;;;;;;6158194;28;20677;-69
2022/04/22 20:58:30;;;;;;;6.63;5.20;;;;;;;;;;6159992;28;20235;-67
2022/04/22 21:01:51;;;;;;;7.03;5.20;;;;;;;;;;6148558;28;20694;-69
2022/04/22 21:05:11;;;;;;;7.97;5.47;;;;;;;;;;6157027;28;21024;-68
2022/04/22 21:08:32;;;;;;;8.30;6.10;;;;;;;;;;6151289;28;20230;-68
2022/04/22 21:11:52;;;;;;;8.97;6.20;;;;;;;;;;6153498;28;20235;-68
2022/04/22 21:15:14;;;;;;;7.27;5.53;;;;;;;;;;6152546;28;20235;-69
2022/04/22 21:18:35;;;;;;;5.83;4.63;;;;;;;;;;6150306;28;20239;-69
2022/04/22 21:21:56;;;;;;;5.70;5.23;;;;;;;;;;6144792;28;20693;-69
2022/04/22 21:25:16;;;;;;;9.23;5.67;;;;;;;;;;6123219;28;20238;-70
2022/04/22 21:28:38;;;;;;;5.97;5.37;;;;;;;;;;6146757;28;20503;-70
2022/04/22 21:32:01;;;;;;;7.87;6.07;;;;;;;;;;6151403;28;20226;-70
2022/04/22 21:35:21;;;;;;;7.10;5.30;;;;;;;;;;6138474;28;20262;-71
2022/04/22 21:38:42;;;;;;;6.77;6.07;;;;;;;;;;6152164;28;20246;-71
2022/04/22 21:42:03;;;;;;;5.43;4.93;;;;;;;;;;6153093;28;20238;-71
2022/04/22 21:45:24;;;;;;;5.50;4.97;;;;;;;;;;6151390;28;20234;-71
2022/04/22 21:48:46;;;;;;;7.67;5.17;;;;;;;;;;6154818;28;20234;-72
2022/04/22 21:52:07;;;;;;;5.43;4.90;;;;;;;;;;6150718;28;20325;-72
2022/04/22 21:55:28;;;;;;;7.40;4.50;;;;;;;;;;6136663;28;20238;-69
2022/04/22 21:58:48;;;;;;;4.13;3.80;;;;;;;;;;6153059;28;20960;-69
2022/04/22 22:02:09;;;;;;;5.73;5.10;;;;;;;;;;6150656;28;20777;-70
2022/04/22 22:05:32;;;;;;;5.20;4.70;;;;;;;;;;6137449;28;20238;-69